Pagina principale
METAR-TAF:

METAR-TAF

Aeroporti :

Aeroporto di Lugano-Agno

Lugano, Svizzera

latitudine: 46-00N, longitudine: 008-58E, altezza: 273 m

Osservazione

Il bollettino è stato emesso 39 minuti fa, alle 19:50 UTC
Vento 1 kt da direzioni variabili
Temperature 21°C
Umidità 94%
Pressione 1017 hPa
Visibilità 10 km o più
nessuna nube inferiore a 1500 m e nessun cumulonembo

METAR: LSZA 161950Z VRB01KT CAVOK 21/20 Q1017 NOSIG

Ora: 22:29 (20:29 UTC)

Previsione

Il bollettino è stato emesso 6 ore e 4 minuti fa, alle 14:25 UTC
Previsione valida dal 16 alle 15 UTC al 16 alle 24 UTC
Vento 4 kt da sud
Visibilità: 9000 m
Poco nuvoloso ad un'altezza di 3500 ft
Evoluzione graduale
dal 16 alle 16 UTC al 16 alle 19 UTC

TAF: LSZA 161425Z 1615/1624 19004KT 9000 FEW035 BECMG 1616/1619 NSC

Osservazioni e previsioni meteorologiche di più di 4000 aeroporti (messaggi METAR e TAF).

Le stazioni disponibili sono rappresentate dai dischi gialli e rossi sulla carta.

Puntare il mouse per vedere il nome della stazione.

Clicca sopra per visualizzare le osservazioni e previsioni meteorologiche.

Per cambiare la mappa : fare clic sui pulsanti verdi con una croce nera per ingrandire, il pulsante verde con un trattino per diminuire, o sulla freccia verde per le mappe adiacenti.


METAR-TAF: